createdAt,value
2022-11-05T00:00:37.578Z,8.00
2022-11-05T00:03:05.482Z,8.00
2022-11-05T00:05:33.129Z,7.65
2022-11-05T00:08:02.981Z,7.50
2022-11-05T00:10:32.283Z,8.10
2022-11-05T00:13:01.567Z,8.07
2022-11-05T00:15:29.799Z,7.22
2022-11-05T00:17:57.502Z,8.00
2022-11-05T00:20:25.057Z,8.25
2022-11-05T00:23:00.479Z,7.13
2022-11-05T00:25:28.448Z,8.35
2022-11-05T00:28:02.407Z,7.90
2022-11-05T00:30:31.016Z,7.65
2022-11-05T00:33:01.867Z,9.00
2022-11-05T00:35:29.872Z,7.72
2022-11-05T00:37:57.701Z,7.53
2022-11-05T00:40:26.118Z,7.15
2022-11-05T00:42:53.973Z,7.70
2022-11-05T00:45:22.947Z,7.90
2022-11-05T00:47:50.739Z,8.00
2022-11-05T00:50:20.552Z,7.80
2022-11-05T00:52:50.533Z,6.75
2022-11-05T00:55:18.129Z,7.45
2022-11-05T00:57:45.998Z,7.40
2022-11-05T01:00:14.814Z,7.38
2022-11-05T01:02:44.291Z,8.38
2022-11-05T01:05:13.553Z,7.32
2022-11-05T01:07:41.143Z,7.43
2022-11-05T01:10:09.461Z,7.65
2022-11-05T01:12:38.043Z,8.65
2022-11-05T01:15:08.911Z,7.43
2022-11-05T01:17:36.917Z,7.13
2022-11-05T01:20:06.754Z,7.40
2022-11-05T01:22:34.612Z,7.13
2022-11-05T01:25:02.991Z,7.43
2022-11-05T01:27:31.008Z,6.70
2022-11-05T01:29:58.565Z,6.78
2022-11-05T01:32:26.146Z,6.70
2022-11-05T01:34:54.383Z,6.40
2022-11-05T01:37:23.650Z,6.40
2022-11-05T01:39:51.233Z,7.18
2022-11-05T01:42:21.627Z,7.53
2022-11-05T01:45:01.401Z,6.95
2022-11-05T01:47:39.151Z,6.82
2022-11-05T01:50:23.949Z,6.30
2022-11-05T01:52:59.369Z,6.45
2022-11-05T01:55:31.502Z,6.75
2022-11-05T01:58:00.780Z,6.55
2022-11-05T02:00:28.323Z,6.75
2022-11-05T02:02:56.799Z,7.40
2022-11-05T02:05:24.818Z,6.50
2022-11-05T02:07:55.267Z,6.43
2022-11-05T02:10:23.798Z,6.97
2022-11-05T02:12:51.998Z,6.20
2022-11-05T02:15:27.538Z,7.25
2022-11-05T02:18:06.510Z,6.97
2022-11-05T02:20:41.647Z,6.72
2022-11-05T02:23:48.151Z,6.60
2022-11-05T02:26:57.426Z,5.80
2022-11-05T02:29:54.067Z,7.47
2022-11-05T02:32:35.339Z,5.70
2022-11-05T02:35:15.893Z,6.05
2022-11-05T02:37:50.835Z,5.80
2022-11-05T02:40:27.633Z,5.80
2022-11-05T02:43:02.405Z,5.97
2022-11-05T02:45:40.790Z,5.78
2022-11-05T02:48:20.736Z,5.82
2022-11-05T02:50:56.056Z,6.38
2022-11-05T02:53:31.360Z,5.55
2022-11-05T02:56:04.612Z,5.78
2022-11-05T02:58:34.127Z,5.80
2022-11-05T03:01:02.364Z,5.93
2022-11-05T03:03:36.254Z,7.40
2022-11-05T03:06:36.205Z,5.95
2022-11-05T03:09:18.172Z,6.65
2022-11-05T03:11:56.114Z,5.93
2022-11-05T03:14:34.293Z,7.75
2022-11-05T03:17:10.540Z,6.05
2022-11-05T03:19:48.312Z,7.07
2022-11-05T03:22:21.641Z,6.45
2022-11-05T03:24:55.476Z,7.22
2022-11-05T03:27:27.843Z,7.45
2022-11-05T03:30:02.046Z,7.72
2022-11-05T03:32:32.910Z,7.05
2022-11-05T03:35:07.362Z,6.95
2022-11-05T03:37:39.754Z,7.05
2022-11-05T03:40:10.632Z,6.72
2022-11-05T03:42:43.631Z,7.05
2022-11-05T03:45:17.558Z,7.43
2022-11-05T03:47:49.932Z,7.63
2022-11-05T03:50:24.113Z,6.43
2022-11-05T03:52:54.919Z,6.43
2022-11-05T03:55:26.399Z,6.78
2022-11-05T03:57:55.653Z,7.40
2022-11-05T04:00:23.522Z,6.55
2022-11-05T04:02:51.366Z,7.15
2022-11-05T04:05:21.159Z,7.28
2022-11-05T04:07:48.801Z,7.03
2022-11-05T04:10:18.875Z,7.82
2022-11-05T04:12:46.556Z,6.95
2022-11-05T04:15:15.248Z,7.90
2022-11-05T04:17:43.777Z,7.85
2022-11-05T04:20:11.706Z,7.75
2022-11-05T04:22:41.283Z,7.65
2022-11-05T04:25:09.398Z,7.05
2022-11-05T04:27:37.985Z,7.28
2022-11-05T04:30:06.704Z,7.18
2022-11-05T04:32:34.486Z,7.50
2022-11-05T04:35:02.155Z,8.75
2022-11-05T04:37:32.938Z,7.55
2022-11-05T04:40:02.265Z,7.68
2022-11-05T04:42:29.920Z,8.05
2022-11-05T04:44:57.585Z,8.52
2022-11-05T04:47:25.347Z,9.07
2022-11-05T04:49:53.024Z,8.90
2022-11-05T04:52:20.689Z,9.55
2022-11-05T04:54:48.369Z,10.10
2022-11-05T04:57:17.726Z,11.18
2022-11-05T04:59:48.282Z,10.38
2022-11-05T05:02:16.016Z,9.85
2022-11-05T05:04:43.887Z,9.07
2022-11-05T05:07:11.626Z,9.40
2022-11-05T05:09:42.186Z,7.45
2022-11-05T05:12:10.911Z,8.07
2022-11-05T05:14:39.956Z,7.18
2022-11-05T05:17:07.902Z,7.40
2022-11-05T05:19:35.497Z,7.43
2022-11-05T05:22:03.178Z,7.38
2022-11-05T05:24:30.970Z,6.40
2022-11-05T05:26:58.544Z,7.63
2022-11-05T05:29:27.103Z,6.38
2022-11-05T05:31:56.380Z,6.97
2022-11-05T05:34:24.037Z,6.38
2022-11-05T05:36:51.598Z,6.53
2022-11-05T05:39:19.387Z,6.20
2022-11-05T05:41:47.116Z,7.72
2022-11-05T05:44:15.013Z,6.50
2022-11-05T05:46:42.707Z,7.45
2022-11-05T05:49:12.576Z,6.53
2022-11-05T05:51:40.726Z,5.38
2022-11-05T05:54:08.740Z,6.03
2022-11-05T05:56:36.404Z,6.88
2022-11-05T05:59:05.781Z,7.47
2022-11-05T06:01:33.692Z,5.32
2022-11-05T06:04:01.338Z,6.10
2022-11-05T06:06:31.019Z,5.88
2022-11-05T06:08:58.754Z,6.25
2022-11-05T06:11:26.377Z,6.15
2022-11-05T06:13:54.042Z,7.03
2022-11-05T06:16:21.954Z,5.63
2022-11-05T06:18:50.669Z,5.57
2022-11-05T06:21:18.386Z,5.65
2022-11-05T06:23:47.648Z,6.38
2022-11-05T06:26:17.560Z,6.22
2022-11-05T06:28:46.562Z,6.25
2022-11-05T06:31:15.264Z,5.78
2022-11-05T06:33:43.257Z,5.78
2022-11-05T06:36:15.471Z,5.88
2022-11-05T06:38:44.060Z,6.03
2022-11-05T06:41:13.339Z,6.35
2022-11-05T06:43:43.033Z,7.03
2022-11-05T06:46:11.652Z,6.82
2022-11-05T06:48:41.776Z,6.43
2022-11-05T06:51:10.608Z,6.13
2022-11-05T06:53:38.529Z,6.50
2022-11-05T06:56:07.874Z,6.88
2022-11-05T06:58:37.191Z,6.35
2022-11-05T07:01:07.195Z,5.93
2022-11-05T07:03:36.311Z,6.75
2022-11-05T07:06:06.401Z,7.03
2022-11-05T07:08:35.400Z,7.00
2022-11-05T07:11:03.699Z,7.18
2022-11-05T07:13:31.828Z,7.28
2022-11-05T07:16:03.279Z,7.30
2022-11-05T07:18:31.296Z,7.85
2022-11-05T07:21:00.217Z,7.78
2022-11-05T07:23:28.232Z,6.57
2022-11-05T07:25:55.873Z,7.50
2022-11-05T07:28:23.713Z,6.88
2022-11-05T07:30:51.476Z,7.78
2022-11-05T07:33:20.625Z,6.25
2022-11-05T07:35:48.435Z,6.75
2022-11-05T07:38:16.030Z,6.90
2022-11-05T07:40:43.944Z,5.88
2022-11-05T07:43:11.970Z,7.13
2022-11-05T07:45:40.351Z,6.28
2022-11-05T07:48:08.329Z,5.20
2022-11-05T07:50:38.200Z,5.18
2022-11-05T07:53:09.504Z,4.88
2022-11-05T07:55:38.020Z,5.00
2022-11-05T07:58:05.898Z,4.80
2022-11-05T08:00:34.126Z,4.85
2022-11-05T08:03:08.179Z,5.07
2022-11-05T08:05:40.663Z,5.07
2022-11-05T08:08:10.288Z,4.88
2022-11-05T08:10:38.766Z,4.20
2022-11-05T08:13:08.864Z,5.47
2022-11-05T08:15:37.424Z,4.93
2022-11-05T08:18:06.995Z,4.57
2022-11-05T08:20:37.567Z,4.13
2022-11-05T08:23:05.729Z,4.78
2022-11-05T08:25:33.824Z,4.22
2022-11-05T08:28:03.966Z,4.15
2022-11-05T08:30:32.045Z,4.05
2022-11-05T08:33:02.625Z,4.32
2022-11-05T08:35:30.680Z,3.80
2022-11-05T08:38:02.039Z,3.95
2022-11-05T08:40:32.016Z,4.45
2022-11-05T08:43:01.392Z,4.07
2022-11-05T08:45:29.867Z,4.05
2022-11-05T08:48:01.488Z,3.92
2022-11-05T08:50:29.783Z,4.07
2022-11-05T08:52:59.327Z,4.15
2022-11-05T08:55:27.765Z,3.80
2022-11-05T08:57:55.857Z,3.70
2022-11-05T09:00:24.595Z,4.20
2022-11-05T09:02:52.868Z,3.92
2022-11-05T09:05:20.551Z,3.33
2022-11-05T09:07:49.096Z,4.35
2022-11-05T09:10:18.693Z,3.78
2022-11-05T09:12:46.952Z,4.13
2022-11-05T09:15:15.933Z,4.47
2022-11-05T09:17:43.670Z,4.72
2022-11-05T09:20:12.172Z,4.65
2022-11-05T09:22:43.268Z,4.60
2022-11-05T09:25:11.824Z,4.03
2022-11-05T09:27:41.271Z,4.55
2022-11-05T09:30:10.829Z,4.30
2022-11-05T09:32:38.985Z,4.85
2022-11-05T09:35:07.835Z,5.25
2022-11-05T09:37:36.360Z,4.93
2022-11-05T09:40:05.411Z,4.68
2022-11-05T09:42:38.004Z,4.65
2022-11-05T09:45:10.915Z,5.00
2022-11-05T09:47:42.701Z,5.20
2022-11-05T09:50:17.489Z,5.30
2022-11-05T09:52:46.254Z,5.10
2022-11-05T09:55:20.113Z,5.38
2022-11-05T09:57:54.655Z,5.15
2022-11-05T10:00:25.155Z,5.95
2022-11-05T10:02:55.680Z,6.18
2022-11-05T10:05:28.086Z,6.07
2022-11-05T10:07:59.381Z,6.70
2022-11-05T10:10:40.587Z,6.13
2022-11-05T10:13:19.443Z,6.18
2022-11-05T10:15:59.179Z,6.93
2022-11-05T10:18:32.706Z,8.53
2022-11-05T10:21:01.974Z,6.03
2022-11-05T10:23:30.234Z,6.97
2022-11-05T10:26:04.194Z,6.88
2022-11-05T10:28:33.946Z,7.70
2022-11-05T10:31:06.529Z,6.60
2022-11-05T10:33:41.330Z,6.18
2022-11-05T10:36:12.569Z,8.02
2022-11-05T10:38:40.458Z,7.03
2022-11-05T10:41:39.486Z,7.05
2022-11-05T10:44:19.215Z,7.32
2022-11-05T10:46:58.096Z,7.53
2022-11-05T10:49:40.834Z,8.15
2022-11-05T10:52:22.931Z,8.32
2022-11-05T10:54:52.619Z,8.55
2022-11-05T10:57:32.545Z,12.05
2022-11-05T11:00:25.888Z,27.38
2022-11-05T11:02:58.554Z,23.02
2022-11-05T11:05:30.609Z,9.35
2022-11-05T11:10:34.213Z,11.23
2022-11-05T11:13:02.759Z,9.63
2022-11-05T11:15:31.545Z,10.52
2022-11-05T11:18:25.398Z,8.90
2022-11-05T11:20:53.354Z,7.75
2022-11-05T11:23:20.956Z,7.18
2022-11-05T11:25:53.249Z,8.88
2022-11-05T11:28:23.623Z,9.57
2022-11-05T11:31:04.763Z,10.80
2022-11-05T11:33:35.312Z,7.60
2022-11-05T11:36:04.059Z,7.60
2022-11-05T11:38:34.452Z,10.55
2022-11-05T11:41:13.831Z,11.32
2022-11-05T11:43:42.609Z,9.57
2022-11-05T11:46:15.258Z,8.20
2022-11-05T11:48:45.889Z,8.48
2022-11-05T11:51:20.305Z,8.32
2022-11-05T11:53:49.686Z,8.63
2022-11-05T11:56:18.991Z,7.85
2022-11-05T11:58:50.816Z,9.23
2022-11-05T12:01:42.973Z,9.15
2022-11-05T12:04:22.104Z,10.70
2022-11-05T12:07:02.761Z,12.15
2022-11-05T12:12:11.380Z,10.80
2022-11-05T12:14:54.719Z,10.18
2022-11-05T12:52:01.339Z,10.88
2022-11-05T12:57:32.314Z,11.00
2022-11-05T13:00:06.117Z,11.15
2022-11-05T13:02:40.800Z,11.48
2022-11-05T13:05:16.352Z,10.88
2022-11-05T13:07:54.427Z,11.27
2022-11-05T13:10:28.633Z,10.55
2022-11-05T13:13:04.903Z,11.25
2022-11-05T13:15:38.997Z,10.30
2022-11-05T13:18:13.601Z,10.85
2022-11-05T13:20:46.416Z,9.88
2022-11-05T13:23:21.017Z,9.82
2022-11-05T13:28:38.667Z,9.13
2022-11-05T13:34:19.954Z,7.57
2022-11-05T13:36:53.363Z,6.85
2022-11-05T13:39:26.517Z,6.32
2022-11-05T13:42:12.253Z,6.32
2022-11-05T13:45:13.721Z,6.70
2022-11-05T13:48:05.712Z,6.50
2022-11-05T13:50:56.606Z,7.10
2022-11-05T13:53:41.574Z,6.40
2022-11-05T13:56:29.303Z,6.25
2022-11-05T13:59:16.021Z,5.75
2022-11-05T14:01:48.627Z,6.22
2022-11-05T14:04:28.428Z,7.28
2022-11-05T14:07:07.035Z,5.22
2022-11-05T14:12:20.863Z,5.10
2022-11-05T14:14:57.488Z,6.38
2022-11-05T14:17:32.618Z,5.03
2022-11-05T14:20:30.786Z,4.50
2022-11-05T14:23:37.403Z,5.25
2022-11-05T14:26:17.899Z,4.72
2022-11-05T14:29:21.423Z,5.15
2022-11-05T14:32:09.991Z,5.03
2022-11-05T14:34:55.152Z,4.80
2022-11-05T14:37:32.390Z,5.05
2022-11-05T14:40:32.559Z,4.30
2022-11-05T14:43:03.232Z,4.10
2022-11-05T14:45:36.559Z,5.15
2022-11-05T15:22:25.425Z,4.57
2022-11-05T15:25:18.328Z,6.28
2022-11-05T15:28:05.839Z,4.72
2022-11-05T15:30:33.848Z,4.25
2022-11-05T15:33:20.512Z,3.78
2022-11-05T18:35:09.834Z,3.88
2022-11-05T18:37:38.084Z,4.30
2022-11-05T18:40:07.256Z,3.85
2022-11-05T18:42:35.124Z,4.03
2022-11-05T18:45:03.671Z,3.85
2022-11-05T18:47:31.718Z,4.28
2022-11-05T18:49:59.782Z,4.50
2022-11-05T18:52:28.933Z,3.72
2022-11-05T18:54:56.498Z,4.35
2022-11-05T18:57:24.269Z,4.28
2022-11-05T18:59:52.059Z,4.30
2022-11-05T19:02:19.801Z,3.88
2022-11-05T19:05:14.068Z,4.25
2022-11-05T19:07:39.104Z,4.30
2022-11-05T19:10:09.166Z,3.75
2022-11-05T19:12:37.586Z,4.35
2022-11-05T19:15:06.015Z,4.30
2022-11-05T19:17:37.794Z,3.83
2022-11-05T19:20:07.295Z,4.40
2022-11-05T19:22:35.450Z,4.03
2022-11-05T19:25:05.537Z,4.45
2022-11-05T19:27:35.630Z,4.77
2022-11-05T19:30:03.867Z,4.30
2022-11-05T19:32:31.911Z,5.05
2022-11-05T19:34:59.569Z,4.75
2022-11-05T19:37:27.188Z,4.43
2022-11-05T19:39:54.883Z,4.90
2022-11-05T19:42:26.715Z,5.35
2022-11-05T19:44:54.423Z,5.13
2022-11-05T19:47:22.278Z,5.07
2022-11-05T19:49:49.912Z,4.88
2022-11-05T19:52:18.413Z,4.57
2022-11-05T19:54:46.028Z,4.20
2022-11-05T19:57:14.260Z,4.25
2022-11-05T19:59:43.545Z,4.45
2022-11-05T20:02:16.081Z,4.63
2022-11-05T20:04:44.790Z,4.90
2022-11-05T20:07:12.494Z,4.72
2022-11-05T20:09:40.273Z,5.55
2022-11-05T20:12:10.041Z,4.53
2022-11-05T20:14:37.949Z,4.88
2022-11-05T20:17:07.262Z,4.50
2022-11-05T20:19:35.128Z,4.50
2022-11-05T20:22:03.616Z,4.13
2022-11-05T20:24:31.678Z,4.40
2022-11-05T20:26:59.524Z,4.60
2022-11-05T20:29:33.816Z,3.85
2022-11-05T20:32:03.794Z,4.13
2022-11-05T20:34:34.908Z,4.47
2022-11-05T20:37:02.535Z,4.80
2022-11-05T20:39:30.744Z,4.60
2022-11-05T20:41:59.986Z,4.50
2022-11-05T20:44:27.970Z,5.07
2022-11-05T20:46:57.779Z,5.03
2022-11-05T20:49:25.987Z,4.43
2022-11-05T20:51:55.250Z,4.68
2022-11-05T20:54:23.686Z,5.78
2022-11-05T20:56:51.310Z,4.85
2022-11-05T20:59:19.241Z,5.00
2022-11-05T21:01:47.513Z,4.70
2022-11-05T21:04:15.462Z,4.80
2022-11-05T21:06:43.180Z,5.45
2022-11-05T21:09:12.840Z,5.10
2022-11-05T21:11:41.532Z,5.00
2022-11-05T21:14:09.913Z,4.90
2022-11-05T21:16:37.681Z,4.53
2022-11-05T21:19:05.434Z,5.05
2022-11-05T21:21:37.379Z,5.07
2022-11-05T21:24:08.405Z,4.90
2022-11-05T21:26:37.856Z,4.50
2022-11-05T21:29:05.835Z,4.80
2022-11-05T21:31:36.248Z,5.28
2022-11-05T21:34:04.300Z,4.30
2022-11-05T21:36:33.591Z,5.03
2022-11-05T21:39:01.608Z,5.10
2022-11-05T21:41:30.258Z,4.53
2022-11-05T21:43:59.293Z,4.30
2022-11-05T21:46:27.041Z,4.65
2022-11-05T21:48:55.203Z,5.20
2022-11-05T21:51:23.097Z,5.18
2022-11-05T21:53:50.785Z,4.22
2022-11-05T21:56:21.177Z,4.53
2022-11-05T21:58:48.830Z,4.15
2022-11-05T22:01:18.197Z,3.95
2022-11-05T22:03:45.973Z,4.22
2022-11-05T22:06:14.109Z,3.70
2022-11-05T22:08:41.882Z,4.07
2022-11-05T22:11:09.478Z,3.88
2022-11-05T22:13:37.297Z,4.18
2022-11-05T22:16:06.308Z,4.03
2022-11-05T22:18:35.657Z,4.75
2022-11-05T22:21:04.386Z,3.83
2022-11-05T22:23:32.360Z,3.58
2022-11-05T22:26:02.382Z,3.70
2022-11-05T22:28:30.276Z,3.83
2022-11-05T22:30:59.154Z,3.78
2022-11-05T22:33:27.022Z,3.63
2022-11-05T22:35:56.063Z,3.95
2022-11-05T22:38:23.727Z,3.30
2022-11-05T22:40:52.762Z,3.80
2022-11-05T22:43:20.744Z,3.70
2022-11-05T22:45:48.527Z,3.42
2022-11-05T22:48:16.337Z,2.85
2022-11-05T22:50:44.044Z,2.78
2022-11-05T22:53:13.264Z,2.67
2022-11-05T22:55:41.551Z,2.72
2022-11-05T22:58:09.160Z,2.70
2022-11-05T23:00:38.196Z,3.40
2022-11-05T23:03:06.078Z,3.08
2022-11-05T23:05:35.308Z,2.92
2022-11-05T23:08:03.400Z,2.80
2022-11-05T23:10:32.775Z,3.22
2022-11-05T23:13:00.377Z,3.10
2022-11-05T23:15:28.004Z,3.53
2022-11-05T23:17:55.757Z,2.80
2022-11-05T23:20:23.851Z,3.35
2022-11-05T23:22:52.278Z,3.17
2022-11-05T23:25:21.639Z,3.50
2022-11-05T23:27:54.720Z,3.15
2022-11-05T23:30:23.900Z,2.92
2022-11-05T23:32:52.843Z,3.00
2022-11-05T23:35:22.295Z,3.22
2022-11-05T23:37:50.005Z,2.70
2022-11-05T23:40:20.811Z,3.30
2022-11-05T23:42:51.038Z,3.25
2022-11-05T23:45:19.143Z,3.55
2022-11-05T23:47:47.653Z,3.78
2022-11-05T23:50:15.543Z,3.63
2022-11-05T23:52:43.112Z,3.65
2022-11-05T23:55:10.755Z,3.75
2022-11-05T23:57:38.608Z,3.50
